Terminal Aerodrome Forecast
Issued by NWS Shreveport, LA

Home | Current Version | Previous Version | Text Only | Print | Product List | Glossary On
Versions: 1 2 3 4 5 6 7 8 9 10 11 12 13
000
FTUS44 KSHV 271140
TAFTXK
TAF
KTXK 271140Z 2712/2812 VRB04KT P6SM FEW080 SCT250
     FM271600 23005KT P6SM FEW025 BKN250
     FM271800 24005KT P6SM SCT040 BKN150 BKN250
     FM272100 20006KT P6SM VCTS BKN050CB
     FM280200 VRB04KT P6SM VCSH SCT050 BKN120 OVC250
     FM280700 19005KT P6SM VCSH BKN030=

USA.gov is the U.S. government's official web portal to all federal, state and local government web resources and services.